Time;durP1;ratioP1;P1;durP2;ratioP2;P2;SDS_P1;SDS_P2;PMS_P1;PMS_P2;Temp;Humidity;BMP_temperature;BMP_pressure;BME280_temperature;BME280_humidity;BME280_pressure;Samples;Min_cycle;Max_cycle;Signal;HPM_P1;HPM_P2
2020/12/26 00:00:51;;;;;;;14.33;7.17;;;;;;;10.95;58.55;94109.03;5033493;28;20153;-72
2020/12/26 00:03:17;;;;;;;11.40;6.90;;;;;;;11.03;58.22;94105.28;5033666;28;20618;-72
2020/12/26 00:05:42;;;;;;;13.07;6.80;;;;;;;10.72;59.69;94098.47;5033288;28;20196;-72
2020/12/26 00:08:08;;;;;;;14.90;7.13;;;;;;;10.88;58.96;94103.59;5033346;28;20196;-71
2020/12/26 00:10:33;;;;;;;11.47;6.70;;;;;;;10.95;58.35;94109.03;5033247;28;20227;-71
2020/12/26 00:12:59;;;;;;;14.17;7.37;;;;;;;10.89;58.77;94113.16;5033240;28;20239;-71
2020/12/26 00:15:24;;;;;;;13.27;6.50;;;;;;;10.84;59.32;94108.16;5033259;28;20192;-71
2020/12/26 00:17:50;;;;;;;11.87;7.00;;;;;;;10.70;60.50;94113.31;5033066;28;20164;-71
2020/12/26 00:20:19;;;;;;;14.70;6.97;;;;;;;10.59;59.74;94116.63;5033112;28;20169;-71
2020/12/26 00:22:45;;;;;;;10.97;6.57;;;;;;;10.78;59.53;94110.38;5033100;28;20165;-72
2020/12/26 00:25:10;;;;;;;15.23;6.30;;;;;;;10.80;59.38;94124.13;5032064;28;20693;-72
2020/12/26 00:27:36;;;;;;;11.50;5.80;;;;;;;10.79;59.41;94125.25;5032491;28;20732;-71
2020/12/26 00:30:02;;;;;;;11.97;6.97;;;;;;;10.65;59.97;94125.06;5033112;28;20175;-72
2020/12/26 00:32:27;;;;;;;10.07;5.50;;;;;;;10.68;59.00;94095.00;5032793;28;20196;-72
2020/12/26 00:34:53;;;;;;;10.30;6.20;;;;;;;10.74;59.13;94135.50;5033062;28;20574;-72
2020/12/26 00:37:19;;;;;;;9.07;5.47;;;;;;;10.74;59.46;94122.13;5032535;28;20492;-70
2020/12/26 00:39:44;;;;;;;14.80;6.40;;;;;;;10.79;59.54;94135.94;5032886;28;20196;-71
2020/12/26 00:42:10;;;;;;;8.27;5.27;;;;;;;10.56;60.40;94135.28;5032590;28;20477;-72
2020/12/26 00:44:36;;;;;;;10.23;5.53;;;;;;;10.75;59.32;94129.00;5030938;28;20722;-71
2020/12/26 00:47:01;;;;;;;12.47;6.37;;;;;;;10.70;59.99;94134.66;5032907;28;20250;-72
2020/12/26 00:49:27;;;;;;;10.70;6.30;;;;;;;10.32;61.59;94128.47;5032410;28;20176;-72
2020/12/26 00:51:52;;;;;;;11.43;6.40;;;;;;;10.36;61.56;94123.94;5032376;28;20204;-72
2020/12/26 00:54:18;;;;;;;13.43;6.87;;;;;;;10.50;60.52;94142.06;5032509;28;20203;-72
2020/12/26 00:56:43;;;;;;;13.20;7.30;;;;;;;10.55;60.43;94134.50;5032516;28;20200;-72
2020/12/26 00:59:09;;;;;;;10.97;5.90;;;;;;;10.62;59.88;94147.19;5032311;28;20161;-72
2020/12/26 01:01:34;;;;;;;12.43;5.87;;;;;;;10.46;61.10;94130.56;5032465;28;20570;-72
2020/12/26 01:04:00;;;;;;;10.83;5.93;;;;;;;10.61;60.40;94126.97;5032392;28;20516;-73
2020/12/26 01:06:26;;;;;;;12.63;5.80;;;;;;;10.40;61.07;94132.78;5032375;28;20679;-72
2020/12/26 01:08:51;;;;;;;13.40;7.10;;;;;;;10.44;61.19;94146.19;5032179;28;20613;-72
2020/12/26 01:11:17;;;;;;;11.90;6.33;;;;;;;10.39;61.47;94135.81;5032310;28;20176;-71
2020/12/26 01:13:42;;;;;;;13.60;6.07;;;;;;;10.26;62.29;94143.25;5032204;28;20207;-71
2020/12/26 01:16:11;;;;;;;13.63;7.07;;;;;;;10.22;62.74;94137.09;5031922;28;20227;-71
2020/12/26 01:18:38;;;;;;;16.43;7.40;;;;;;;10.38;62.15;94126.25;5032181;28;20180;-71
2020/12/26 01:21:04;;;;;;;10.17;6.30;;;;;;;10.41;62.08;94133.56;5031817;28;21163;-72
2020/12/26 01:23:33;;;;;;;10.63;6.10;;;;;;;10.25;62.91;94137.16;5031705;28;20664;-73
2020/12/26 01:25:59;;;;;;;13.43;7.07;;;;;;;10.44;62.23;94133.59;5031471;28;20582;-73
2020/12/26 01:28:24;;;;;;;12.60;6.90;;;;;;;10.48;61.38;94128.28;5032054;28;20606;-73
2020/12/26 01:30:50;;;;;;;11.33;6.13;;;;;;;10.41;62.02;94128.22;5032099;28;20167;-73
2020/12/26 01:33:15;;;;;;;12.30;6.43;;;;;;;10.51;62.38;94116.91;5031977;28;20205;-73
2020/12/26 01:35:41;;;;;;;10.93;6.80;;;;;;;10.45;62.58;94105.78;5031700;28;20200;-73
2020/12/26 01:38:06;;;;;;;13.77;6.00;;;;;;;10.55;63.22;94121.16;5031607;28;20643;-73
2020/12/26 01:40:32;;;;;;;11.17;6.43;;;;;;;10.07;63.94;94074.75;5032328;28;20164;-72
2020/12/26 01:42:58;;;;;;;13.10;6.50;;;;;;;10.42;64.35;94103.06;5031492;28;20203;-73
2020/12/26 01:45:24;;;;;;;11.83;6.63;;;;;;;10.46;63.67;94101.97;5031756;28;20548;-72
2020/12/26 01:47:50;;;;;;;12.67;6.43;;;;;;;10.47;63.93;94097.41;5031330;28;20187;-72
2020/12/26 01:50:15;;;;;;;15.50;6.80;;;;;;;10.58;63.97;94103.66;5031632;28;20583;-72
2020/12/26 01:52:41;;;;;;;12.67;6.97;;;;;;;10.51;64.36;94096.31;5031160;28;20172;-72
2020/12/26 01:55:07;;;;;;;11.27;5.67;;;;;;;10.55;63.86;94094.47;5030012;28;20196;-72
2020/12/26 01:57:34;;;;;;;13.17;6.93;;;;;;;10.41;64.60;94093.53;5031247;28;20246;-73
2020/12/26 02:00:03;;;;;;;11.63;5.93;;;;;;;10.13;65.44;94078.66;5031733;28;20195;-72
2020/12/26 02:02:29;;;;;;;12.10;7.10;;;;;;;10.42;64.43;94103.81;5029436;28;20607;-72
2020/12/26 02:04:54;;;;;;;9.63;6.20;;;;;;;10.45;65.07;94097.00;5031171;28;20640;-72
2020/12/26 02:07:20;;;;;;;15.33;6.00;;;;;;;10.36;65.03;94085.84;5031310;28;20172;-72
2020/12/26 02:09:46;;;;;;;10.73;6.10;;;;;;;10.48;64.31;94098.94;5013213;28;20203;-73
2020/12/26 02:12:11;;;;;;;12.57;6.60;;;;;;;10.45;64.89;94103.13;5030257;28;20165;-72
2020/12/26 02:14:44;;;;;;;10.33;6.23;;;;;;;10.48;65.21;94088.25;5031012;28;20217;-72
2020/12/26 02:17:09;;;;;;;10.83;5.90;;;;;;;9.84;65.95;94055.41;5031112;28;20183;-73
2020/12/26 02:19:35;;;;;;;8.17;5.50;;;;;;;9.94;66.10;94060.13;5030887;28;20559;-71
2020/12/26 02:22:01;;;;;;;11.70;6.00;;;;;;;10.11;65.18;94093.50;5029553;28;20192;-71
2020/12/26 02:24:26;;;;;;;10.77;5.90;;;;;;;9.69;67.21;94099.72;5030617;28;20176;-71
2020/12/26 02:26:52;;;;;;;10.63;5.50;;;;;;;9.41;68.42;94089.41;5031261;28;20710;-74
2020/12/26 02:29:17;;;;;;;10.33;6.30;;;;;;;9.81;66.65;94102.19;5030930;28;20202;-72
2020/12/26 02:31:43;;;;;;;12.33;6.40;;;;;;;9.71;67.41;94102.84;5030823;28;20203;-72
2020/12/26 02:34:08;;;;;;;10.17;5.80;;;;;;;9.68;67.68;94098.19;5030642;28;20208;-72
2020/12/26 02:36:34;;;;;;;12.97;5.80;;;;;;;9.59;67.59;94087.00;5030058;28;20594;-72
2020/12/26 02:39:00;;;;;;;12.53;7.03;;;;;;;9.71;68.18;94092.94;5029025;28;20172;-72
2020/12/26 02:41:25;;;;;;;9.43;5.30;;;;;;;9.54;68.37;94088.88;5030582;28;20268;-72
2020/12/26 02:43:51;;;;;;;9.37;5.80;;;;;;;9.75;67.74;94096.41;5031001;28;20255;-72
2020/12/26 02:46:16;;;;;;;9.97;6.23;;;;;;;9.30;69.06;94091.88;5030737;28;20180;-71
2020/12/26 02:48:42;;;;;;;9.63;5.87;;;;;;;9.63;68.16;94107.25;5030942;28;20188;-71
2020/12/26 02:51:07;;;;;;;11.40;6.27;;;;;;;9.72;67.75;94113.13;5030623;28;20180;-72
2020/12/26 02:53:33;;;;;;;9.20;5.50;;;;;;;9.56;69.07;94119.72;5030682;28;20164;-72
2020/12/26 02:55:58;;;;;;;12.23;5.80;;;;;;;9.61;70.48;94128.19;5030695;28;20350;-72
2020/12/26 02:58:24;;;;;;;9.73;5.97;;;;;;;9.58;71.06;94112.13;5030559;28;20175;-72
2020/12/26 03:00:50;;;;;;;9.33;6.03;;;;;;;9.64;71.38;94129.34;5030868;28;20165;-72
2020/12/26 03:03:16;;;;;;;9.73;5.87;;;;;;;9.80;70.26;94130.75;5030502;28;20263;-72
2020/12/26 03:05:41;;;;;;;10.50;5.77;;;;;;;9.60;71.03;94097.34;5030648;28;20180;-72
2020/12/26 03:08:07;;;;;;;8.43;6.13;;;;;;;9.84;71.32;94132.72;5030610;28;20594;-71
2020/12/26 03:10:32;;;;;;;10.87;6.37;;;;;;;9.80;71.79;94130.00;5029397;28;20256;-72
2020/12/26 03:12:58;;;;;;;10.87;6.30;;;;;;;9.71;71.76;94129.50;5030387;28;20192;-72
2020/12/26 03:15:24;;;;;;;10.40;6.60;;;;;;;9.71;71.87;94111.59;5032516;28;20196;-71
2020/12/26 03:17:50;;;;;;;9.33;5.80;;;;;;;9.52;72.37;94128.41;5034844;28;20176;-72
2020/12/26 03:20:16;;;;;;;6.93;5.60;;;;;;;9.70;72.11;94134.03;5034510;28;20594;-72
2020/12/26 03:22:41;;;;;;;10.17;6.57;;;;;;;9.63;72.38;94135.81;5034670;28;20212;-72
2020/12/26 03:25:07;;;;;;;8.20;5.90;;;;;;;9.67;71.86;94126.75;5034003;28;20618;-72
2020/12/26 03:27:32;;;;;;;8.70;5.93;;;;;;;9.66;71.74;94138.56;5034393;28;20252;-73
2020/12/26 03:29:58;;;;;;;9.57;6.80;;;;;;;9.63;72.14;94147.25;5034316;28;20246;-73
2020/12/26 03:32:23;;;;;;;8.73;6.17;;;;;;;9.84;70.71;94148.72;5034414;28;20181;-73
2020/12/26 03:34:49;;;;;;;8.17;6.27;;;;;;;9.71;71.38;94137.47;5034334;28;20173;-72
2020/12/26 03:37:14;;;;;;;9.73;6.43;;;;;;;9.55;72.15;94132.28;5034336;28;20209;-72
2020/12/26 03:39:40;;;;;;;9.53;7.07;;;;;;;9.54;71.74;94125.41;5034074;28;20646;-72
2020/12/26 03:42:06;;;;;;;9.20;6.03;;;;;;;9.78;70.77;94121.59;5034152;28;20176;-72
2020/12/26 03:44:32;;;;;;;7.57;6.03;;;;;;;9.58;71.82;94147.53;5034284;28;20173;-73
2020/12/26 03:46:57;;;;;;;10.60;6.63;;;;;;;9.58;71.27;94144.88;5034013;28;21251;-72
2020/12/26 03:49:23;;;;;;;10.07;6.63;;;;;;;9.77;71.26;94128.81;5034252;28;20203;-73
2020/12/26 03:51:49;;;;;;;10.00;6.33;;;;;;;9.66;70.66;94130.56;5034180;28;20643;-73
2020/12/26 03:54:15;;;;;;;10.03;6.87;;;;;;;9.73;71.36;94135.22;5034188;28;20605;-73
2020/12/26 03:56:40;;;;;;;9.47;6.70;;;;;;;9.41;72.02;94142.69;5033642;28;20661;-73
2020/12/26 03:59:06;;;;;;;10.57;6.33;;;;;;;9.20;72.96;94129.75;5033917;28;20254;-71
2020/12/26 04:01:31;;;;;;;11.93;6.97;;;;;;;9.16;72.16;94092.44;5032432;28;20230;-72
2020/12/26 04:03:57;;;;;;;8.00;6.27;;;;;;;9.22;72.07;94103.56;5033877;28;20242;-72
2020/12/26 04:06:22;;;;;;;9.20;6.23;;;;;;;9.25;72.44;94130.25;5033880;28;20223;-72
2020/12/26 04:08:48;;;;;;;8.53;6.30;;;;;;;9.30;72.54;94142.50;5033705;28;20629;-72
2020/12/26 04:11:13;;;;;;;8.33;5.70;;;;;;;9.12;72.71;94133.44;5033854;28;20665;-72
2020/12/26 04:13:39;;;;;;;8.20;6.07;;;;;;;9.20;73.22;94124.44;5031763;28;20655;-72
2020/12/26 04:16:04;;;;;;;9.77;7.00;;;;;;;9.01;73.40;94127.91;5033651;28;20263;-73
2020/12/26 04:18:30;;;;;;;9.83;6.33;;;;;;;9.02;73.73;94126.78;5033606;28;20606;-72
2020/12/26 04:20:55;;;;;;;9.17;6.30;;;;;;;9.04;73.49;94131.78;5033547;28;20172;-72
2020/12/26 04:23:21;;;;;;;9.13;6.33;;;;;;;9.07;73.22;94129.16;5033359;28;20263;-72
2020/12/26 04:25:47;;;;;;;9.20;6.57;;;;;;;9.12;72.59;94104.13;5033068;28;20184;-72
2020/12/26 04:28:13;;;;;;;10.17;6.50;;;;;;;9.27;72.69;94121.91;5033010;28;20208;-72
2020/12/26 04:30:38;;;;;;;9.33;5.80;;;;;;;9.36;72.65;94121.66;5033483;28;20168;-72
2020/12/26 04:33:04;;;;;;;9.10;6.13;;;;;;;9.20;72.71;94111.13;5033452;28;20611;-72
2020/12/26 04:35:29;;;;;;;9.10;6.10;;;;;;;9.09;71.85;94078.19;5033094;28;20239;-72
2020/12/26 04:37:55;;;;;;;10.53;6.30;;;;;;;9.45;72.12;94114.97;5031369;28;20184;-72
2020/12/26 04:40:21;;;;;;;7.83;5.37;;;;;;;9.51;71.26;94104.78;5032783;28;20196;-72
2020/12/26 04:42:47;;;;;;;8.83;5.33;;;;;;;9.26;71.86;94083.09;5033091;28;20169;-72
2020/12/26 04:45:12;;;;;;;6.67;5.00;;;;;;;9.41;71.06;94092.81;5014244;28;21007;-72
2020/12/26 04:47:44;;;;;;;7.37;5.20;;;;;;;9.42;71.30;94097.03;5032926;28;20179;-72
2020/12/26 04:50:10;;;;;;;8.23;4.93;;;;;;;9.37;71.15;94094.69;5031732;28;20195;-73
2020/12/26 04:52:36;;;;;;;9.10;5.13;;;;;;;9.53;70.35;94099.88;5031606;28;20642;-73
2020/12/26 04:55:04;;;;;;;6.90;4.90;;;;;;;9.64;69.87;94111.47;5031214;28;20180;-73
2020/12/26 04:57:34;;;;;;;8.13;4.80;;;;;;;9.63;70.46;94106.50;5032773;28;20291;-74
2020/12/26 05:00:00;;;;;;;7.23;4.60;;;;;;;9.51;71.04;94105.56;5032785;28;20618;-73
2020/12/26 05:02:26;;;;;;;6.97;4.80;;;;;;;9.39;70.90;94111.06;5032834;28;20724;-73
2020/12/26 05:04:52;;;;;;;6.87;4.63;;;;;;;9.47;70.92;94118.03;5014739;28;21180;-73
2020/12/26 05:07:18;;;;;;;10.10;5.50;;;;;;;9.44;70.60;94112.69;5014781;28;20246;-73
2020/12/26 05:09:43;;;;;;;6.37;5.00;;;;;;;9.35;70.88;94117.47;5032830;28;20164;-73
2020/12/26 05:12:09;;;;;;;6.63;4.83;;;;;;;9.20;71.24;94095.94;5032528;28;20176;-73
2020/12/26 05:14:34;;;;;;;7.73;4.87;;;;;;;9.03;71.08;94088.38;5032721;28;20199;-73
2020/12/26 05:17:00;;;;;;;8.00;4.70;;;;;;;9.04;71.36;94086.50;5030224;28;20307;-73
2020/12/26 05:19:26;;;;;;;7.83;4.63;;;;;;;9.31;71.30;94127.28;5018076;28;20173;-73
2020/12/26 05:21:53;;;;;;;6.60;4.97;;;;;;;9.13;72.12;94130.41;5012650;28;21211;-73
2020/12/26 05:24:18;;;;;;;6.80;4.87;;;;;;;9.20;72.07;94117.25;5012554;28;20252;-73
2020/12/26 05:26:45;;;;;;;9.47;4.80;;;;;;;9.30;71.70;94121.19;5012203;28;20817;-73
2020/12/26 05:29:11;;;;;;;7.47;4.73;;;;;;;9.25;71.52;94121.47;5010999;28;20185;-74
2020/12/26 05:31:43;;;;;;;8.03;5.40;;;;;;;9.49;70.39;94115.03;5012678;28;20592;-73
2020/12/26 05:34:09;;;;;;;5.40;4.27;;;;;;;9.52;70.65;94117.00;5011054;28;21172;-73
2020/12/26 05:36:34;;;;;;;8.47;5.23;;;;;;;9.40;71.34;94114.50;5012161;28;20647;-73
2020/12/26 05:39:00;;;;;;;7.07;5.23;;;;;;;9.38;70.86;94120.19;5011746;28;20176;-73
2020/12/26 05:41:25;;;;;;;6.83;4.93;;;;;;;9.33;70.03;94117.81;5012435;28;20197;-73
2020/12/26 05:43:51;;;;;;;8.57;5.77;;;;;;;9.39;70.82;94121.72;5010583;28;20201;-73
2020/12/26 05:46:16;;;;;;;7.53;5.23;;;;;;;9.43;70.77;94119.13;5011026;28;20679;-73
2020/12/26 05:48:42;;;;;;;7.77;5.30;;;;;;;9.33;71.61;94125.06;5011939;28;20172;-73
2020/12/26 05:51:07;;;;;;;9.23;5.37;;;;;;;9.44;70.80;94132.09;5012209;28;20724;-74
2020/12/26 05:53:33;;;;;;;7.03;4.93;;;;;;;9.31;70.83;94133.38;5010567;28;20719;-73
2020/12/26 05:55:58;;;;;;;7.80;5.33;;;;;;;9.20;71.27;94119.91;5012094;28;20757;-72
2020/12/26 05:58:25;;;;;;;7.77;5.30;;;;;;;9.08;71.21;94088.09;5012003;28;20644;-72
2020/12/26 06:00:51;;;;;;;9.33;4.97;;;;;;;9.50;70.29;94127.25;5024480;28;20667;-72
2020/12/26 06:03:28;;;;;;;7.90;5.47;;;;;;;9.39;71.09;94118.31;5011719;28;20604;-71
2020/12/26 06:06:04;;;;;;;8.87;5.37;;;;;;;9.24;71.23;94134.03;5011714;28;20169;-71
2020/12/26 06:08:30;;;;;;;9.67;4.53;;;;;;;9.28;70.69;94140.19;5011762;28;20690;-71
2020/12/26 06:11:03;;;;;;;7.10;5.50;;;;;;;9.35;70.83;94144.88;5011276;28;20595;-71
2020/12/26 06:13:29;;;;;;;10.17;5.60;;;;;;;9.47;69.90;94147.38;5011073;28;20176;-71
2020/12/26 06:16:18;;;;;;;7.57;5.40;;;;;;;9.35;70.80;94157.44;5011976;28;20635;-72
2020/12/26 06:18:57;;;;;;;6.57;4.60;;;;;;;9.13;71.43;94154.38;5011620;28;20609;-72
2020/12/26 06:21:26;;;;;;;6.10;4.97;;;;;;;9.07;72.62;94147.81;5012000;28;21020;-72
2020/12/26 06:23:52;;;;;;;6.83;5.43;;;;;;;9.09;71.71;94156.22;5011465;28;20579;-72
2020/12/26 06:26:17;;;;;;;7.93;4.90;;;;;;;9.35;71.04;94152.88;5011483;28;20954;-73
2020/12/26 06:28:43;;;;;;;9.17;5.00;;;;;;;9.10;71.93;94160.44;5011309;28;20173;-72
2020/12/26 06:31:09;;;;;;;9.10;5.43;;;;;;;9.09;72.06;94177.53;5010378;28;20644;-72
2020/12/26 06:33:39;;;;;;;7.97;5.40;;;;;;;9.44;70.45;94156.09;5014235;28;20263;-72
2020/12/26 06:36:05;;;;;;;10.57;6.37;;;;;;;9.27;70.84;94170.63;5030490;28;20212;-72
2020/12/26 06:38:30;;;;;;;8.77;6.27;;;;;;;9.28;71.43;94156.19;5031035;28;20595;-70
2020/12/26 06:41:14;;;;;;;7.17;5.10;;;;;;;9.46;70.34;94161.03;5031071;28;21217;-71
2020/12/26 06:43:43;;;;;;;13.23;5.10;;;;;;;9.46;71.04;94174.38;5030198;28;20183;-71
2020/12/26 06:46:29;;;;;;;10.37;6.10;;;;;;;9.40;70.42;94171.22;5029470;28;20635;-73
2020/12/26 06:48:57;;;;;;;9.30;5.53;;;;;;;9.42;70.12;94162.88;5031897;28;20636;-72
2020/12/26 06:51:38;;;;;;;10.93;6.13;;;;;;;9.08;71.82;94167.97;5035200;28;20590;-71
2020/12/26 06:54:04;;;;;;;7.83;5.60;;;;;;;9.14;71.74;94171.91;5033888;28;20582;-71
2020/12/26 06:56:36;;;;;;;6.60;4.90;;;;;;;9.17;70.98;94173.88;5035016;28;21081;-71
2020/12/26 06:59:02;;;;;;;11.23;5.87;;;;;;;9.20;71.09;94175.84;5035333;28;20966;-72
2020/12/26 07:01:28;;;;;;;9.60;5.73;;;;;;;9.33;70.44;94178.34;5034906;28;20992;-72
2020/12/26 07:04:21;;;;;;;10.07;5.43;;;;;;;9.42;70.33;94170.88;5034740;28;20641;-72
2020/12/26 07:06:53;;;;;;;7.90;4.87;;;;;;;9.51;70.39;94174.09;5035011;28;20176;-72
2020/12/26 07:09:20;;;;;;;8.13;6.00;;;;;;;9.06;71.45;94156.16;5035055;28;20587;-72
2020/12/26 07:11:47;;;;;;;9.53;5.33;;;;;;;9.27;71.04;94167.97;5035009;28;20598;-72
2020/12/26 07:14:32;;;;;;;8.50;5.43;;;;;;;9.38;70.83;94154.06;5034398;28;20594;-73
2020/12/26 07:16:58;;;;;;;8.40;5.37;;;;;;;9.42;70.52;94168.19;5034720;28;20684;-72
2020/12/26 07:19:31;;;;;;;13.37;4.63;;;;;;;9.01;71.52;94122.59;5034490;28;20582;-72
2020/12/26 07:22:08;;;;;;;10.63;5.60;;;;;;;9.38;70.47;94156.72;5025109;28;20602;-72
2020/12/26 07:24:43;;;;;;;7.87;4.97;;;;;;;9.15;71.56;94162.81;5033299;28;20614;-71
2020/12/26 07:27:24;;;;;;;6.50;4.60;;;;;;;9.06;71.44;94162.25;5033963;28;20642;-71
2020/12/26 07:30:01;;;;;;;9.27;5.43;;;;;;;9.33;71.28;94165.78;5034671;28;20578;-72
2020/12/26 07:32:35;;;;;;;7.20;4.93;;;;;;;9.40;70.16;94175.78;5034400;28;20618;-72
2020/12/26 07:35:14;;;;;;;8.67;5.63;;;;;;;9.36;70.60;94166.97;5034278;28;20581;-72
2020/12/26 07:37:42;;;;;;;11.73;6.53;;;;;;;9.48;70.41;94154.25;5032806;28;20689;-72
2020/12/26 07:40:08;;;;;;;8.90;6.60;;;;;;;9.46;70.46;94166.38;5034595;28;20620;-72
2020/12/26 07:42:34;;;;;;;8.83;6.53;;;;;;;9.44;70.35;94164.06;5034332;28;20679;-72
2020/12/26 07:45:10;;;;;;;9.73;6.40;;;;;;;9.35;71.26;94168.09;5034325;28;20172;-72
2020/12/26 07:47:45;;;;;;;10.93;7.23;;;;;;;9.23;71.34;94171.69;5034012;28;20681;-73
2020/12/26 07:50:12;;;;;;;11.93;6.93;;;;;;;9.44;70.78;94173.97;5034235;28;20578;-72
2020/12/26 07:52:37;;;;;;;12.00;7.87;;;;;;;9.01;72.02;94189.16;5033892;28;20575;-72
2020/12/26 07:55:04;;;;;;;12.73;8.93;;;;;;;9.13;71.86;94157.03;5034058;28;20682;-72
2020/12/26 07:57:30;;;;;;;14.73;9.00;;;;;;;9.20;71.59;94162.53;5033952;28;20226;-73
2020/12/26 07:59:55;;;;;;;13.60;8.27;;;;;;;9.40;70.77;94168.56;5027556;28;20684;-72
2020/12/26 08:02:21;;;;;;;13.77;9.13;;;;;;;9.47;70.82;94159.91;5033662;28;20211;-72
2020/12/26 08:04:47;;;;;;;13.77;9.23;;;;;;;9.43;70.87;94145.78;5033690;28;20180;-72
2020/12/26 08:07:17;;;;;;;15.20;8.57;;;;;;;9.46;70.81;94169.81;5033784;28;20207;-72
2020/12/26 08:09:49;;;;;;;12.90;8.50;;;;;;;9.31;71.82;94170.69;5032700;28;20218;-72
2020/12/26 08:12:15;;;;;;;20.57;8.37;;;;;;;9.39;71.31;94164.38;5012524;28;20572;-72
2020/12/26 08:14:40;;;;;;;15.40;9.30;;;;;;;9.27;71.73;94165.31;5013798;28;20635;-73
2020/12/26 08:17:06;;;;;;;13.73;8.57;;;;;;;9.35;71.41;94160.88;5013381;28;20200;-73
2020/12/26 08:19:33;;;;;;;15.10;8.43;;;;;;;9.32;71.61;94163.47;5013820;28;20655;-72
2020/12/26 08:21:59;;;;;;;11.93;7.63;;;;;;;9.51;71.09;94150.88;5010778;28;20621;-72
2020/12/26 08:24:24;;;;;;;13.90;8.37;;;;;;;9.17;72.23;94165.09;5029140;28;21162;-73
2020/12/26 08:26:53;;;;;;;13.53;8.77;;;;;;;9.38;71.08;94156.72;5033488;28;20220;-72
2020/12/26 08:29:21;;;;;;;14.87;7.77;;;;;;;9.52;70.79;94170.28;5033239;28;20156;-72
2020/12/26 08:31:47;;;;;;;11.77;7.77;;;;;;;9.54;70.68;94160.06;5012282;28;21173;-71
2020/12/26 08:34:16;;;;;;;20.30;8.57;;;;;;;9.59;70.82;94166.97;5012438;28;20595;-73
2020/12/26 08:36:49;;;;;;;18.80;9.77;;;;;;;9.41;71.41;94172.75;5015977;28;20240;-72
2020/12/26 08:39:17;;;;;;;11.73;7.87;;;;;;;9.64;71.11;94162.09;5012176;28;21012;-72
2020/12/26 08:41:42;;;;;;;14.63;7.93;;;;;;;9.43;71.23;94172.44;5028241;28;20653;-71
2020/12/26 08:44:11;;;;;;;14.83;8.87;;;;;;;9.71;70.08;94169.47;5015598;28;20555;-72
2020/12/26 08:46:47;;;;;;;12.13;8.47;;;;;;;9.51;70.88;94177.50;5033096;28;20207;-72
2020/12/26 08:49:13;;;;;;;16.53;9.10;;;;;;;9.65;70.57;94162.88;5032125;28;20578;-73
2020/12/26 08:51:47;;;;;;;16.23;8.40;;;;;;;9.45;71.60;94183.50;5032619;28;20590;-72
2020/12/26 08:54:18;;;;;;;12.47;7.70;;;;;;;9.34;71.76;94177.22;5032894;28;20624;-72
2020/12/26 08:56:44;;;;;;;15.10;8.60;;;;;;;9.68;69.92;94162.94;5032876;28;20630;-72
2020/12/26 08:59:10;;;;;;;14.53;7.73;;;;;;;9.58;70.31;94163.53;5032723;28;20554;-72
2020/12/26 09:01:35;;;;;;;10.37;6.77;;;;;;;9.57;70.13;94140.69;5021375;28;20233;-72
2020/12/26 09:04:01;;;;;;;11.87;7.50;;;;;;;9.66;70.67;94173.19;5029238;28;20762;-72
2020/12/26 09:06:31;;;;;;;14.40;9.00;;;;;;;9.68;69.82;94162.19;5012056;28;20212;-72
2020/12/26 09:08:56;;;;;;;13.97;9.27;;;;;;;9.50;71.13;94159.22;5021378;28;20230;-72
2020/12/26 09:11:28;;;;;;;16.47;10.47;;;;;;;9.74;70.15;94160.75;5026177;28;20594;-71
2020/12/26 09:13:53;;;;;;;17.30;10.90;;;;;;;9.77;70.20;94149.38;5027359;28;20172;-72
2020/12/26 09:16:19;;;;;;;17.37;10.20;;;;;;;9.66;70.40;94151.88;5012566;28;20670;-72
2020/12/26 09:18:48;;;;;;;16.77;9.57;;;;;;;9.54;70.81;94176.81;5012675;28;20208;-73
2020/12/26 09:21:23;;;;;;;19.67;10.77;;;;;;;9.47;71.04;94154.59;5022418;28;20181;-72
2020/12/26 09:23:50;;;;;;;22.83;10.97;;;;;;;9.61;70.95;94152.16;5032476;28;20916;-72
2020/12/26 09:26:20;;;;;;;13.63;8.93;;;;;;;9.75;70.29;94122.28;5031838;28;20682;-72
2020/12/26 09:28:58;;;;;;;15.50;9.13;;;;;;;9.80;70.05;94151.31;5032309;28;20579;-72
2020/12/26 09:31:25;;;;;;;13.63;9.23;;;;;;;9.82;69.99;94135.75;5024797;28;20690;-71
2020/12/26 09:33:55;;;;;;;15.77;9.40;;;;;;;9.78;69.82;94146.34;5021039;28;20601;-71
2020/12/26 09:36:22;;;;;;;13.97;9.57;;;;;;;9.90;69.37;94134.72;5030681;28;20633;-73
2020/12/26 09:38:48;;;;;;;15.63;9.47;;;;;;;10.08;69.64;94132.31;5021951;28;20579;-72
2020/12/26 09:41:16;;;;;;;19.70;10.60;;;;;;;10.00;69.82;94134.13;5031104;28;20689;-72
2020/12/26 09:43:43;;;;;;;15.23;9.83;;;;;;;9.83;69.90;94134.63;5031702;28;20559;-72
2020/12/26 09:46:09;;;;;;;14.53;8.40;;;;;;;10.11;69.63;94146.84;5032079;28;20582;-72
2020/12/26 09:48:34;;;;;;;15.20;9.27;;;;;;;10.08;68.62;94146.41;5032309;28;20606;-72
2020/12/26 09:51:00;;;;;;;13.63;9.17;;;;;;;9.95;69.73;94147.75;5031211;28;20267;-72
2020/12/26 09:53:26;;;;;;;15.47;9.37;;;;;;;9.93;69.60;94139.34;5046697;28;20200;-72
2020/12/26 09:55:52;;;;;;;14.37;8.80;;;;;;;10.05;69.90;94128.47;5031648;28;20197;-71
2020/12/26 09:58:17;;;;;;;14.17;8.93;;;;;;;10.02;69.72;94137.19;5031628;28;20612;-72
2020/12/26 10:00:43;;;;;;;15.07;9.20;;;;;;;10.10;69.36;94134.59;5015024;28;20177;-72
2020/12/26 10:03:09;;;;;;;16.17;9.43;;;;;;;10.19;69.36;94145.81;5011743;28;20165;-72
2020/12/26 10:05:34;;;;;;;15.63;10.10;;;;;;;9.76;70.56;94137.94;5012054;28;20559;-72
2020/12/26 10:08:00;;;;;;;18.80;9.47;;;;;;;10.20;69.28;94140.09;5011731;28;20619;-71
2020/12/26 10:10:26;;;;;;;15.20;8.70;;;;;;;9.93;69.97;94133.22;5025553;28;20631;-72
2020/12/26 10:12:52;;;;;;;16.43;9.77;;;;;;;10.23;68.85;94133.28;5031568;28;20199;-72
2020/12/26 10:15:18;;;;;;;14.90;8.50;;;;;;;10.20;69.51;94136.66;5030446;28;20176;-72
2020/12/26 10:17:44;;;;;;;14.33;9.60;;;;;;;10.05;69.55;94119.72;5031390;28;20682;-72
2020/12/26 10:20:09;;;;;;;17.83;9.57;;;;;;;10.18;68.78;94114.91;5018724;28;21274;-72
2020/12/26 10:22:35;;;;;;;20.37;12.40;;;;;;;10.14;68.63;94130.88;5011575;28;20641;-72
2020/12/26 10:25:00;;;;;;;20.37;12.30;;;;;;;10.16;69.38;94128.63;5021731;28;20164;-72
2020/12/26 10:27:26;;;;;;;21.00;12.10;;;;;;;10.04;69.71;94139.47;5023950;28;20597;-73
2020/12/26 10:29:52;;;;;;;22.33;11.50;;;;;;;10.05;69.73;94122.38;5028432;28;20598;-72
2020/12/26 10:32:17;;;;;;;22.83;13.83;;;;;;;10.23;68.84;94128.75;5030641;28;20180;-72
2020/12/26 10:34:43;;;;;;;21.63;12.73;;;;;;;10.22;68.14;94121.84;5030904;28;20200;-73
2020/12/26 10:37:09;;;;;;;25.97;14.93;;;;;;;10.24;68.07;94130.28;5031226;28;20203;-72
2020/12/26 10:39:34;;;;;;;25.37;13.63;;;;;;;9.96;68.98;94133.28;5036453;28;20197;-72
2020/12/26 10:42:00;;;;;;;28.30;15.37;;;;;;;10.13;68.52;94126.66;5050854;28;20586;-72
2020/12/26 10:44:25;;;;;;;32.40;15.57;;;;;;;9.96;69.10;94127.94;5051329;28;20260;-72
2020/12/26 10:46:51;;;;;;;24.27;13.73;;;;;;;10.12;68.53;94130.47;5051000;28;20210;-72
2020/12/26 10:49:17;;;;;;;24.37;14.53;;;;;;;10.16;68.47;94130.53;5050866;28;20273;-72
2020/12/26 10:51:47;;;;;;;24.07;13.17;;;;;;;10.18;67.98;94134.38;5051012;28;20172;-72
2020/12/26 10:54:13;;;;;;;30.37;14.03;;;;;;;10.13;68.28;94136.56;5042319;28;20171;-71
2020/12/26 10:56:38;;;;;;;24.17;13.80;;;;;;;10.24;67.33;94137.53;5028126;28;20682;-71
2020/12/26 10:59:04;;;;;;;21.97;12.10;;;;;;;10.43;67.39;94131.28;5031801;28;20243;-73
2020/12/26 11:01:30;;;;;;;20.43;12.77;;;;;;;10.26;67.40;94133.34;5050641;28;20541;-73
2020/12/26 11:03:56;;;;;;;21.50;12.50;;;;;;;10.22;67.44;94143.19;5051085;28;20175;-73
2020/12/26 11:06:21;;;;;;;26.70;13.47;;;;;;;10.25;67.20;94137.16;5046337;28;20591;-73
2020/12/26 11:08:47;;;;;;;22.00;12.80;;;;;;;10.27;68.43;94136.81;5030819;28;20743;-73
2020/12/26 11:11:12;;;;;;;29.77;14.97;;;;;;;10.41;66.63;94149.56;5012322;28;20192;-73
2020/12/26 11:13:38;;;;;;;28.37;14.30;;;;;;;10.31;67.24;94151.72;5012851;28;20271;-73
2020/12/26 11:16:03;;;;;;;35.67;16.30;;;;;;;10.33;67.03;94152.16;5031039;28;20713;-72
2020/12/26 11:18:29;;;;;;;24.83;14.60;;;;;;;10.06;67.70;94135.34;5030718;28;20591;-72
2020/12/26 11:20:54;;;;;;;26.93;15.63;;;;;;;10.22;67.68;94148.53;5045756;28;20187;-73
2020/12/26 11:23:20;;;;;;;28.83;15.20;;;;;;;10.20;68.17;94136.66;5035637;28;20199;-72
2020/12/26 11:25:46;;;;;;;30.40;15.87;;;;;;;10.23;67.87;94131.41;5030710;28;20173;-72
2020/12/26 11:28:11;;;;;;;26.43;15.00;;;;;;;10.16;68.01;94122.53;5030282;28;20229;-72
2020/12/26 11:30:37;;;;;;;28.13;15.87;;;;;;;10.37;67.67;94111.38;5030365;28;20169;-73